sensor_id;sensor_type;location;lat;lon;timestamp;P1;durP1;ratioP1;P2;durP2;ratioP2
77384;SDS011;66443;49.122;8.346;2023-04-29T00:00:28;10.43;;;9.37;;
77384;SDS011;66443;49.122;8.346;2023-04-29T00:02:53;9.57;;;8.53;;
77384;SDS011;66443;49.122;8.346;2023-04-29T00:05:18;9.70;;;8.70;;
77384;SDS011;66443;49.122;8.346;2023-04-29T00:07:43;10.70;;;9.67;;
77384;SDS011;66443;49.122;8.346;2023-04-29T00:10:09;9.83;;;8.83;;
77384;SDS011;66443;49.122;8.346;2023-04-29T00:12:36;13.27;;;8.53;;
77384;SDS011;66443;49.122;8.346;2023-04-29T00:15:01;9.47;;;8.57;;
77384;SDS011;66443;49.122;8.346;2023-04-29T00:17:28;11.67;;;9.03;;
77384;SDS011;66443;49.122;8.346;2023-04-29T00:19:54;12.13;;;9.03;;
77384;SDS011;66443;49.122;8.346;2023-04-29T00:22:20;9.93;;;8.77;;
77384;SDS011;66443;49.122;8.346;2023-04-29T00:24:46;9.33;;;8.03;;
77384;SDS011;66443;49.122;8.346;2023-04-29T00:27:11;9.23;;;8.27;;
77384;SDS011;66443;49.122;8.346;2023-04-29T00:29:36;10.90;;;8.00;;
77384;SDS011;66443;49.122;8.346;2023-04-29T00:32:02;9.33;;;8.27;;
77384;SDS011;66443;49.122;8.346;2023-04-29T00:34:27;9.33;;;8.47;;
77384;SDS011;66443;49.122;8.346;2023-04-29T00:36:53;9.37;;;7.33;;
77384;SDS011;66443;49.122;8.346;2023-04-29T00:39:18;9.40;;;8.50;;
77384;SDS011;66443;49.122;8.346;2023-04-29T00:41:43;13.03;;;9.17;;
77384;SDS011;66443;49.122;8.346;2023-04-29T00:44:08;11.07;;;8.97;;
77384;SDS011;66443;49.122;8.346;2023-04-29T00:46:34;9.33;;;8.33;;
77384;SDS011;66443;49.122;8.346;2023-04-29T00:48:59;10.30;;;9.37;;
77384;SDS011;66443;49.122;8.346;2023-04-29T00:51:25;9.43;;;8.47;;
77384;SDS011;66443;49.122;8.346;2023-04-29T00:53:51;10.00;;;9.00;;
77384;SDS011;66443;49.122;8.346;2023-04-29T00:56:17;9.13;;;8.23;;
77384;SDS011;66443;49.122;8.346;2023-04-29T00:58:44;9.10;;;8.20;;
77384;SDS011;66443;49.122;8.346;2023-04-29T01:01:13;12.50;;;8.67;;
77384;SDS011;66443;49.122;8.346;2023-04-29T01:03:40;20.83;;;8.67;;
77384;SDS011;66443;49.122;8.346;2023-04-29T01:11:41;9.37;;;7.77;;
77384;SDS011;66443;49.122;8.346;2023-04-29T01:14:11;9.20;;;8.40;;
77384;SDS011;66443;49.122;8.346;2023-04-29T01:16:37;11.30;;;8.77;;
77384;SDS011;66443;49.122;8.346;2023-04-29T01:19:07;9.00;;;8.10;;
77384;SDS011;66443;49.122;8.346;2023-04-29T01:21:46;11.87;;;8.50;;
77384;SDS011;66443;49.122;8.346;2023-04-29T01:24:12;10.70;;;8.23;;
77384;SDS011;66443;49.122;8.346;2023-04-29T01:26:38;9.83;;;8.30;;
77384;SDS011;66443;49.122;8.346;2023-04-29T01:31:54;11.53;;;9.23;;
77384;SDS011;66443;49.122;8.346;2023-04-29T01:34:27;9.73;;;8.73;;
77384;SDS011;66443;49.122;8.346;2023-04-29T01:39:32;10.73;;;9.53;;
77384;SDS011;66443;49.122;8.346;2023-04-29T01:44:45;23.03;;;12.23;;
77384;SDS011;66443;49.122;8.346;2023-04-29T01:47:12;16.47;;;11.03;;
77384;SDS011;66443;49.122;8.346;2023-04-29T01:49:37;15.60;;;11.23;;
77384;SDS011;66443;49.122;8.346;2023-04-29T01:52:03;12.13;;;10.83;;
77384;SDS011;66443;49.122;8.346;2023-04-29T01:54:29;12.03;;;10.83;;
77384;SDS011;66443;49.122;8.346;2023-04-29T01:56:54;18.70;;;11.00;;
77384;SDS011;66443;49.122;8.346;2023-04-29T01:59:19;17.43;;;12.13;;
77384;SDS011;66443;49.122;8.346;2023-04-29T02:01:45;18.17;;;12.77;;
77384;SDS011;66443;49.122;8.346;2023-04-29T02:04:10;16.17;;;11.57;;
77384;SDS011;66443;49.122;8.346;2023-04-29T02:06:35;17.07;;;11.93;;
77384;SDS011;66443;49.122;8.346;2023-04-29T02:09:00;15.37;;;11.50;;
77384;SDS011;66443;49.122;8.346;2023-04-29T02:11:25;13.40;;;11.63;;
77384;SDS011;66443;49.122;8.346;2023-04-29T02:13:51;12.03;;;10.53;;
77384;SDS011;66443;49.122;8.346;2023-04-29T02:16:16;14.17;;;11.13;;
77384;SDS011;66443;49.122;8.346;2023-04-29T02:18:41;14.23;;;11.03;;
77384;SDS011;66443;49.122;8.346;2023-04-29T02:21:07;13.63;;;11.17;;
77384;SDS011;66443;49.122;8.346;2023-04-29T02:23:32;14.53;;;11.67;;
77384;SDS011;66443;49.122;8.346;2023-04-29T02:25:57;15.00;;;11.00;;
77384;SDS011;66443;49.122;8.346;2023-04-29T02:28:23;15.23;;;11.27;;
77384;SDS011;66443;49.122;8.346;2023-04-29T02:30:48;12.50;;;11.10;;
77384;SDS011;66443;49.122;8.346;2023-04-29T02:33:13;14.53;;;11.10;;
77384;SDS011;66443;49.122;8.346;2023-04-29T02:35:38;15.97;;;10.17;;
77384;SDS011;66443;49.122;8.346;2023-04-29T02:38:04;16.57;;;11.40;;
77384;SDS011;66443;49.122;8.346;2023-04-29T02:40:29;15.17;;;11.50;;
77384;SDS011;66443;49.122;8.346;2023-04-29T02:42:54;15.50;;;10.93;;
77384;SDS011;66443;49.122;8.346;2023-04-29T02:45:19;14.57;;;10.83;;
77384;SDS011;66443;49.122;8.346;2023-04-29T02:47:45;16.23;;;10.87;;
77384;SDS011;66443;49.122;8.346;2023-04-29T02:50:10;13.20;;;10.60;;
77384;SDS011;66443;49.122;8.346;2023-04-29T02:52:35;13.53;;;9.47;;
77384;SDS011;66443;49.122;8.346;2023-04-29T02:55:01;14.20;;;10.83;;
77384;SDS011;66443;49.122;8.346;2023-04-29T02:57:26;16.27;;;10.07;;
77384;SDS011;66443;49.122;8.346;2023-04-29T02:59:53;10.90;;;9.53;;
77384;SDS011;66443;49.122;8.346;2023-04-29T03:02:18;11.93;;;9.87;;
77384;SDS011;66443;49.122;8.346;2023-04-29T03:04:43;10.70;;;9.50;;
77384;SDS011;66443;49.122;8.346;2023-04-29T03:07:09;11.13;;;9.70;;
77384;SDS011;66443;49.122;8.346;2023-04-29T03:09:34;11.00;;;9.40;;
77384;SDS011;66443;49.122;8.346;2023-04-29T03:11:59;11.07;;;10.00;;
77384;SDS011;66443;49.122;8.346;2023-04-29T03:14:25;19.20;;;10.80;;
77384;SDS011;66443;49.122;8.346;2023-04-29T03:16:50;12.07;;;9.73;;
77384;SDS011;66443;49.122;8.346;2023-04-29T03:19:16;10.37;;;9.27;;
77384;SDS011;66443;49.122;8.346;2023-04-29T03:21:41;10.47;;;9.57;;
77384;SDS011;66443;49.122;8.346;2023-04-29T03:24:06;9.97;;;8.93;;
77384;SDS011;66443;49.122;8.346;2023-04-29T03:26:31;9.17;;;8.37;;
77384;SDS011;66443;49.122;8.346;2023-04-29T03:28:57;10.87;;;9.77;;
77384;SDS011;66443;49.122;8.346;2023-04-29T03:31:24;10.20;;;8.83;;
77384;SDS011;66443;49.122;8.346;2023-04-29T03:33:50;10.40;;;9.40;;
77384;SDS011;66443;49.122;8.346;2023-04-29T03:36:17;9.03;;;8.10;;
77384;SDS011;66443;49.122;8.346;2023-04-29T03:38:42;10.27;;;9.27;;
77384;SDS011;66443;49.122;8.346;2023-04-29T03:41:08;8.93;;;8.13;;
77384;SDS011;66443;49.122;8.346;2023-04-29T03:43:33;10.27;;;7.67;;
77384;SDS011;66443;49.122;8.346;2023-04-29T03:45:58;8.90;;;7.07;;
77384;SDS011;66443;49.122;8.346;2023-04-29T03:48:24;7.73;;;6.93;;
77384;SDS011;66443;49.122;8.346;2023-04-29T03:50:49;9.63;;;7.13;;
77384;SDS011;66443;49.122;8.346;2023-04-29T03:53:14;7.60;;;6.87;;
77384;SDS011;66443;49.122;8.346;2023-04-29T03:55:40;8.37;;;7.40;;
77384;SDS011;66443;49.122;8.346;2023-04-29T03:58:05;7.50;;;6.90;;
77384;SDS011;66443;49.122;8.346;2023-04-29T04:00:30;8.17;;;7.37;;
77384;SDS011;66443;49.122;8.346;2023-04-29T04:02:56;8.10;;;7.33;;
77384;SDS011;66443;49.122;8.346;2023-04-29T04:05:21;8.47;;;7.67;;
77384;SDS011;66443;49.122;8.346;2023-04-29T04:07:49;9.30;;;6.90;;
77384;SDS011;66443;49.122;8.346;2023-04-29T04:10:14;7.93;;;7.13;;
77384;SDS011;66443;49.122;8.346;2023-04-29T04:12:39;9.57;;;6.93;;
77384;SDS011;66443;49.122;8.346;2023-04-29T04:15:05;8.27;;;7.47;;
77384;SDS011;66443;49.122;8.346;2023-04-29T04:17:30;8.13;;;7.33;;
77384;SDS011;66443;49.122;8.346;2023-04-29T04:19:55;11.47;;;7.47;;
77384;SDS011;66443;49.122;8.346;2023-04-29T04:22:20;11.00;;;7.53;;
77384;SDS011;66443;49.122;8.346;2023-04-29T04:24:46;8.20;;;7.27;;
77384;SDS011;66443;49.122;8.346;2023-04-29T04:27:11;9.23;;;7.63;;
77384;SDS011;66443;49.122;8.346;2023-04-29T04:29:36;8.67;;;7.87;;
77384;SDS011;66443;49.122;8.346;2023-04-29T04:32:02;8.27;;;7.57;;
77384;SDS011;66443;49.122;8.346;2023-04-29T04:34:27;15.63;;;7.37;;
77384;SDS011;66443;49.122;8.346;2023-04-29T04:36:52;8.07;;;7.03;;
77384;SDS011;66443;49.122;8.346;2023-04-29T04:39:17;7.33;;;6.60;;
77384;SDS011;66443;49.122;8.346;2023-04-29T04:41:43;7.30;;;6.60;;
77384;SDS011;66443;49.122;8.346;2023-04-29T04:44:08;9.40;;;6.57;;
77384;SDS011;66443;49.122;8.346;2023-04-29T04:46:34;7.50;;;6.77;;
77384;SDS011;66443;49.122;8.346;2023-04-29T04:48:59;8.03;;;7.23;;
77384;SDS011;66443;49.122;8.346;2023-04-29T04:51:24;8.43;;;7.17;;
77384;SDS011;66443;49.122;8.346;2023-04-29T04:53:49;7.83;;;7.03;;
77384;SDS011;66443;49.122;8.346;2023-04-29T04:56:15;7.50;;;6.13;;
77384;SDS011;66443;49.122;8.346;2023-04-29T04:58:40;7.70;;;7.00;;
77384;SDS011;66443;49.122;8.346;2023-04-29T05:01:05;9.50;;;7.30;;
77384;SDS011;66443;49.122;8.346;2023-04-29T05:03:31;6.93;;;6.33;;
77384;SDS011;66443;49.122;8.346;2023-04-29T05:05:57;7.13;;;6.37;;
77384;SDS011;66443;49.122;8.346;2023-04-29T05:08:23;7.03;;;6.43;;
77384;SDS011;66443;49.122;8.346;2023-04-29T05:10:48;6.87;;;6.27;;
77384;SDS011;66443;49.122;8.346;2023-04-29T05:13:13;7.03;;;6.40;;
77384;SDS011;66443;49.122;8.346;2023-04-29T05:15:39;7.03;;;6.33;;
77384;SDS011;66443;49.122;8.346;2023-04-29T05:18:04;11.50;;;10.50;;
77384;SDS011;66443;49.122;8.346;2023-04-29T05:20:29;8.73;;;7.23;;
77384;SDS011;66443;49.122;8.346;2023-04-29T05:22:54;9.30;;;7.17;;
77384;SDS011;66443;49.122;8.346;2023-04-29T05:25:20;7.53;;;6.87;;
77384;SDS011;66443;49.122;8.346;2023-04-29T05:27:45;7.87;;;6.20;;
77384;SDS011;66443;49.122;8.346;2023-04-29T05:30:10;7.20;;;6.50;;
77384;SDS011;66443;49.122;8.346;2023-04-29T05:32:36;7.27;;;6.67;;
77384;SDS011;66443;49.122;8.346;2023-04-29T05:35:01;6.90;;;6.40;;
77384;SDS011;66443;49.122;8.346;2023-04-29T05:37:26;8.43;;;6.80;;
77384;SDS011;66443;49.122;8.346;2023-04-29T05:39:54;6.93;;;6.20;;
77384;SDS011;66443;49.122;8.346;2023-04-29T05:42:20;7.00;;;6.40;;
77384;SDS011;66443;49.122;8.346;2023-04-29T05:44:45;6.93;;;6.30;;
77384;SDS011;66443;49.122;8.346;2023-04-29T05:47:10;6.43;;;5.83;;
77384;SDS011;66443;49.122;8.346;2023-04-29T05:49:35;7.23;;;6.07;;
77384;SDS011;66443;49.122;8.346;2023-04-29T05:52:00;5.87;;;5.37;;
77384;SDS011;66443;49.122;8.346;2023-04-29T05:54:30;6.00;;;5.47;;
77384;SDS011;66443;49.122;8.346;2023-04-29T05:56:55;6.10;;;5.63;;
77384;SDS011;66443;49.122;8.346;2023-04-29T05:59:20;6.63;;;5.93;;
77384;SDS011;66443;49.122;8.346;2023-04-29T06:01:45;5.97;;;5.57;;
77384;SDS011;66443;49.122;8.346;2023-04-29T06:04:11;6.33;;;5.83;;
77384;SDS011;66443;49.122;8.346;2023-04-29T06:06:36;7.93;;;5.97;;
77384;SDS011;66443;49.122;8.346;2023-04-29T06:09:01;7.30;;;5.80;;
77384;SDS011;66443;49.122;8.346;2023-04-29T06:11:27;7.00;;;6.47;;
77384;SDS011;66443;49.122;8.346;2023-04-29T06:13:52;6.57;;;5.97;;
77384;SDS011;66443;49.122;8.346;2023-04-29T06:16:17;6.83;;;5.90;;
77384;SDS011;66443;49.122;8.346;2023-04-29T06:18:42;6.20;;;5.70;;
77384;SDS011;66443;49.122;8.346;2023-04-29T06:21:07;5.90;;;4.97;;
77384;SDS011;66443;49.122;8.346;2023-04-29T06:23:33;6.17;;;5.67;;
77384;SDS011;66443;49.122;8.346;2023-04-29T06:25:58;7.33;;;5.57;;
77384;SDS011;66443;49.122;8.346;2023-04-29T06:28:23;5.70;;;5.30;;
77384;SDS011;66443;49.122;8.346;2023-04-29T06:30:48;4.83;;;4.50;;
77384;SDS011;66443;49.122;8.346;2023-04-29T06:33:14;4.80;;;4.40;;
77384;SDS011;66443;49.122;8.346;2023-04-29T06:35:39;4.53;;;4.20;;
77384;SDS011;66443;49.122;8.346;2023-04-29T06:38:05;4.13;;;3.83;;
77384;SDS011;66443;49.122;8.346;2023-04-29T06:40:32;4.27;;;3.83;;
77384;SDS011;66443;49.122;8.346;2023-04-29T06:42:57;4.47;;;4.10;;
77384;SDS011;66443;49.122;8.346;2023-04-29T06:45:22;3.97;;;3.67;;
77384;SDS011;66443;49.122;8.346;2023-04-29T06:47:48;3.97;;;3.67;;
77384;SDS011;66443;49.122;8.346;2023-04-29T06:50:14;4.23;;;3.83;;
77384;SDS011;66443;49.122;8.346;2023-04-29T06:52:39;4.10;;;3.80;;
77384;SDS011;66443;49.122;8.346;2023-04-29T06:55:04;4.07;;;3.77;;
77384;SDS011;66443;49.122;8.346;2023-04-29T06:57:30;4.20;;;3.90;;
77384;SDS011;66443;49.122;8.346;2023-04-29T06:59:56;4.07;;;3.83;;
77384;SDS011;66443;49.122;8.346;2023-04-29T07:02:21;4.43;;;4.10;;
77384;SDS011;66443;49.122;8.346;2023-04-29T07:04:46;4.80;;;4.50;;
77384;SDS011;66443;49.122;8.346;2023-04-29T07:07:13;5.07;;;4.57;;
77384;SDS011;66443;49.122;8.346;2023-04-29T07:09:38;4.37;;;3.97;;
77384;SDS011;66443;49.122;8.346;2023-04-29T07:12:03;4.47;;;3.97;;
77384;SDS011;66443;49.122;8.346;2023-04-29T07:14:29;4.50;;;4.10;;
77384;SDS011;66443;49.122;8.346;2023-04-29T07:16:54;3.30;;;3.00;;
77384;SDS011;66443;49.122;8.346;2023-04-29T07:19:20;3.47;;;3.20;;
77384;SDS011;66443;49.122;8.346;2023-04-29T07:21:45;3.20;;;3.00;;
77384;SDS011;66443;49.122;8.346;2023-04-29T07:24:10;2.60;;;2.50;;
77384;SDS011;66443;49.122;8.346;2023-04-29T07:26:35;2.97;;;2.77;;
77384;SDS011;66443;49.122;8.346;2023-04-29T07:29:00;2.80;;;2.60;;
77384;SDS011;66443;49.122;8.346;2023-04-29T07:31:26;2.60;;;2.40;;
77384;SDS011;66443;49.122;8.346;2023-04-29T07:33:52;3.30;;;2.60;;
77384;SDS011;66443;49.122;8.346;2023-04-29T07:36:17;2.70;;;2.60;;
77384;SDS011;66443;49.122;8.346;2023-04-29T07:38:42;3.20;;;2.80;;
77384;SDS011;66443;49.122;8.346;2023-04-29T07:41:08;2.73;;;2.40;;
77384;SDS011;66443;49.122;8.346;2023-04-29T07:43:33;2.60;;;2.40;;
77384;SDS011;66443;49.122;8.346;2023-04-29T07:45:58;2.43;;;2.23;;
77384;SDS011;66443;49.122;8.346;2023-04-29T07:48:23;2.13;;;2.03;;
77384;SDS011;66443;49.122;8.346;2023-04-29T07:50:48;2.00;;;1.90;;
77384;SDS011;66443;49.122;8.346;2023-04-29T07:53:14;2.23;;;2.13;;
77384;SDS011;66443;49.122;8.346;2023-04-29T07:55:40;2.13;;;2.00;;
77384;SDS011;66443;49.122;8.346;2023-04-29T07:58:05;2.77;;;2.10;;
77384;SDS011;66443;49.122;8.346;2023-04-29T08:00:30;2.87;;;2.67;;
77384;SDS011;66443;49.122;8.346;2023-04-29T08:02:55;2.83;;;2.20;;
77384;SDS011;66443;49.122;8.346;2023-04-29T08:05:21;2.60;;;2.23;;
77384;SDS011;66443;49.122;8.346;2023-04-29T08:07:47;2.57;;;2.37;;
77384;SDS011;66443;49.122;8.346;2023-04-29T08:10:13;2.33;;;2.23;;
77384;SDS011;66443;49.122;8.346;2023-04-29T08:12:38;2.70;;;2.47;;
77384;SDS011;66443;49.122;8.346;2023-04-29T08:15:03;3.40;;;2.77;;
77384;SDS011;66443;49.122;8.346;2023-04-29T08:17:29;2.80;;;2.57;;
77384;SDS011;66443;49.122;8.346;2023-04-29T08:19:54;3.03;;;2.80;;
77384;SDS011;66443;49.122;8.346;2023-04-29T08:22:19;3.57;;;2.87;;
77384;SDS011;66443;49.122;8.346;2023-04-29T08:24:45;3.33;;;3.03;;
77384;SDS011;66443;49.122;8.346;2023-04-29T08:27:10;3.17;;;2.83;;
77384;SDS011;66443;49.122;8.346;2023-04-29T08:29:35;3.60;;;3.00;;
77384;SDS011;66443;49.122;8.346;2023-04-29T08:32:01;2.87;;;2.67;;
77384;SDS011;66443;49.122;8.346;2023-04-29T08:34:26;2.87;;;2.67;;
77384;SDS011;66443;49.122;8.346;2023-04-29T08:36:51;3.30;;;2.80;;
77384;SDS011;66443;49.122;8.346;2023-04-29T08:39:16;2.53;;;2.43;;
77384;SDS011;66443;49.122;8.346;2023-04-29T08:41:42;2.73;;;2.53;;
77384;SDS011;66443;49.122;8.346;2023-04-29T08:44:09;2.50;;;2.30;;
77384;SDS011;66443;49.122;8.346;2023-04-29T08:46:34;2.63;;;2.43;;
77384;SDS011;66443;49.122;8.346;2023-04-29T08:49:01;2.80;;;2.60;;
77384;SDS011;66443;49.122;8.346;2023-04-29T08:51:27;2.57;;;2.37;;
77384;SDS011;66443;49.122;8.346;2023-04-29T08:53:53;2.27;;;1.87;;
77384;SDS011;66443;49.122;8.346;2023-04-29T08:56:18;2.33;;;2.23;;
77384;SDS011;66443;49.122;8.346;2023-04-29T08:58:45;2.17;;;2.00;;
77384;SDS011;66443;49.122;8.346;2023-04-29T09:01:14;2.20;;;2.10;;
77384;SDS011;66443;49.122;8.346;2023-04-29T09:03:48;2.23;;;2.13;;
77384;SDS011;66443;49.122;8.346;2023-04-29T09:06:14;2.60;;;2.40;;
77384;SDS011;66443;49.122;8.346;2023-04-29T09:08:40;2.70;;;2.50;;
77384;SDS011;66443;49.122;8.346;2023-04-29T09:11:07;2.70;;;2.50;;
77384;SDS011;66443;49.122;8.346;2023-04-29T09:13:33;2.60;;;2.23;;
77384;SDS011;66443;49.122;8.346;2023-04-29T09:15:58;2.43;;;2.23;;
77384;SDS011;66443;49.122;8.346;2023-04-29T09:18:42;2.30;;;2.10;;
77384;SDS011;66443;49.122;8.346;2023-04-29T09:21:24;2.33;;;2.17;;
77384;SDS011;66443;49.122;8.346;2023-04-29T09:24:00;2.70;;;2.50;;
77384;SDS011;66443;49.122;8.346;2023-04-29T09:26:26;3.07;;;2.27;;
77384;SDS011;66443;49.122;8.346;2023-04-29T09:29:12;2.70;;;2.50;;
77384;SDS011;66443;49.122;8.346;2023-04-29T09:31:42;2.77;;;2.30;;
77384;SDS011;66443;49.122;8.346;2023-04-29T09:34:07;8.37;;;7.67;;
77384;SDS011;66443;49.122;8.346;2023-04-29T09:39:01;9.30;;;8.43;;
77384;SDS011;66443;49.122;8.346;2023-04-29T09:41:27;8.73;;;8.03;;
77384;SDS011;66443;49.122;8.346;2023-04-29T09:44:05;8.57;;;7.87;;
77384;SDS011;66443;49.122;8.346;2023-04-29T09:46:31;9.77;;;8.90;;
77384;SDS011;66443;49.122;8.346;2023-04-29T09:48:57;8.93;;;8.20;;
77384;SDS011;66443;49.122;8.346;2023-04-29T09:51:22;8.67;;;7.97;;
77384;SDS011;66443;49.122;8.346;2023-04-29T09:53:48;7.67;;;7.03;;
77384;SDS011;66443;49.122;8.346;2023-04-29T09:56:13;8.47;;;7.03;;
77384;SDS011;66443;49.122;8.346;2023-04-29T09:58:38;7.63;;;6.93;;
77384;SDS011;66443;49.122;8.346;2023-04-29T10:01:04;7.47;;;6.77;;
77384;SDS011;66443;49.122;8.346;2023-04-29T10:03:34;7.80;;;7.10;;
77384;SDS011;66443;49.122;8.346;2023-04-29T10:06:00;7.10;;;6.43;;
77384;SDS011;66443;49.122;8.346;2023-04-29T10:08:26;6.93;;;6.33;;
77384;SDS011;66443;49.122;8.346;2023-04-29T10:10:52;7.53;;;6.57;;
77384;SDS011;66443;49.122;8.346;2023-04-29T10:13:22;7.17;;;6.30;;
77384;SDS011;66443;49.122;8.346;2023-04-29T10:15:48;7.13;;;6.43;;
77384;SDS011;66443;49.122;8.346;2023-04-29T10:18:20;7.07;;;6.37;;
77384;SDS011;66443;49.122;8.346;2023-04-29T10:20:46;6.63;;;6.10;;
77384;SDS011;66443;49.122;8.346;2023-04-29T10:23:12;7.23;;;6.57;;
77384;SDS011;66443;49.122;8.346;2023-04-29T10:25:38;6.87;;;6.03;;
77384;SDS011;66443;49.122;8.346;2023-04-29T10:28:03;7.30;;;6.60;;
77384;SDS011;66443;49.122;8.346;2023-04-29T10:30:29;6.33;;;5.73;;
77384;SDS011;66443;49.122;8.346;2023-04-29T10:32:55;6.90;;;6.40;;
77384;SDS011;66443;49.122;8.346;2023-04-29T10:35:21;8.17;;;6.07;;
77384;SDS011;66443;49.122;8.346;2023-04-29T10:37:49;5.90;;;5.40;;
77384;SDS011;66443;49.122;8.346;2023-04-29T10:40:22;7.50;;;5.50;;
77384;SDS011;66443;49.122;8.346;2023-04-29T10:42:52;7.70;;;6.70;;
77384;SDS011;66443;49.122;8.346;2023-04-29T10:50:30;5.53;;;5.10;;
77384;SDS011;66443;49.122;8.346;2023-04-29T10:52:56;5.37;;;4.97;;
77384;SDS011;66443;49.122;8.346;2023-04-29T10:55:22;5.13;;;4.63;;
77384;SDS011;66443;49.122;8.346;2023-04-29T10:57:47;5.60;;;5.13;;
77384;SDS011;66443;49.122;8.346;2023-04-29T11:00:21;5.33;;;4.90;;
77384;SDS011;66443;49.122;8.346;2023-04-29T11:02:47;4.97;;;4.57;;
77384;SDS011;66443;49.122;8.346;2023-04-29T11:05:13;5.97;;;5.37;;
77384;SDS011;66443;49.122;8.346;2023-04-29T11:07:38;4.97;;;4.50;;
77384;SDS011;66443;49.122;8.346;2023-04-29T11:10:04;6.63;;;5.97;;
77384;SDS011;66443;49.122;8.346;2023-04-29T11:12:30;5.67;;;5.27;;
77384;SDS011;66443;49.122;8.346;2023-04-29T11:14:56;5.47;;;5.00;;
77384;SDS011;66443;49.122;8.346;2023-04-29T11:17:27;5.87;;;5.37;;
77384;SDS011;66443;49.122;8.346;2023-04-29T11:19:58;5.67;;;5.20;;
77384;SDS011;66443;49.122;8.346;2023-04-29T11:22:25;4.53;;;4.13;;
77384;SDS011;66443;49.122;8.346;2023-04-29T11:24:55;5.03;;;4.63;;
77384;SDS011;66443;49.122;8.346;2023-04-29T11:27:21;4.87;;;4.47;;
77384;SDS011;66443;49.122;8.346;2023-04-29T11:29:49;6.40;;;5.80;;
77384;SDS011;66443;49.122;8.346;2023-04-29T11:32:15;5.03;;;4.63;;
77384;SDS011;66443;49.122;8.346;2023-04-29T11:34:40;4.77;;;4.33;;
77384;SDS011;66443;49.122;8.346;2023-04-29T11:37:05;5.43;;;4.93;;
77384;SDS011;66443;49.122;8.346;2023-04-29T11:39:34;5.13;;;4.73;;
77384;SDS011;66443;49.122;8.346;2023-04-29T11:42:03;4.80;;;4.40;;
77384;SDS011;66443;49.122;8.346;2023-04-29T11:44:29;5.23;;;4.73;;
77384;SDS011;66443;49.122;8.346;2023-04-29T11:47:00;4.70;;;4.30;;
77384;SDS011;66443;49.122;8.346;2023-04-29T11:49:34;5.13;;;4.53;;
77384;SDS011;66443;49.122;8.346;2023-04-29T11:52:01;5.60;;;5.10;;
77384;SDS011;66443;49.122;8.346;2023-04-29T11:54:27;5.80;;;4.90;;
77384;SDS011;66443;49.122;8.346;2023-04-29T11:56:53;6.33;;;5.70;;
77384;SDS011;66443;49.122;8.346;2023-04-29T11:59:19;4.97;;;4.47;;
77384;SDS011;66443;49.122;8.346;2023-04-29T12:01:45;5.30;;;4.50;;
77384;SDS011;66443;49.122;8.346;2023-04-29T12:04:10;4.60;;;4.20;;
77384;SDS011;66443;49.122;8.346;2023-04-29T12:06:35;6.60;;;4.30;;
77384;SDS011;66443;49.122;8.346;2023-04-29T12:09:00;4.97;;;4.57;;
77384;SDS011;66443;49.122;8.346;2023-04-29T12:11:28;4.70;;;4.30;;
77384;SDS011;66443;49.122;8.346;2023-04-29T12:13:53;5.27;;;4.87;;
77384;SDS011;66443;49.122;8.346;2023-04-29T12:16:19;6.57;;;5.10;;
77384;SDS011;66443;49.122;8.346;2023-04-29T12:18:44;5.33;;;4.90;;
77384;SDS011;66443;49.122;8.346;2023-04-29T12:21:09;5.20;;;4.73;;
77384;SDS011;66443;49.122;8.346;2023-04-29T12:23:34;6.10;;;5.10;;
77384;SDS011;66443;49.122;8.346;2023-04-29T12:26:00;4.90;;;4.50;;
77384;SDS011;66443;49.122;8.346;2023-04-29T12:28:26;5.10;;;4.70;;
77384;SDS011;66443;49.122;8.346;2023-04-29T12:30:52;4.43;;;4.03;;
77384;SDS011;66443;49.122;8.346;2023-04-29T12:33:24;5.53;;;5.03;;
77384;SDS011;66443;49.122;8.346;2023-04-29T12:35:51;6.80;;;4.97;;
77384;SDS011;66443;49.122;8.346;2023-04-29T12:38:20;5.50;;;4.97;;
77384;SDS011;66443;49.122;8.346;2023-04-29T12:40:46;4.87;;;4.50;;
77384;SDS011;66443;49.122;8.346;2023-04-29T12:43:11;5.57;;;5.07;;
77384;SDS011;66443;49.122;8.346;2023-04-29T12:45:37;5.23;;;4.63;;
77384;SDS011;66443;49.122;8.346;2023-04-29T12:48:02;5.03;;;4.53;;
77384;SDS011;66443;49.122;8.346;2023-04-29T12:50:31;5.07;;;4.67;;
77384;SDS011;66443;49.122;8.346;2023-04-29T12:52:57;6.07;;;4.60;;
77384;SDS011;66443;49.122;8.346;2023-04-29T12:55:22;4.77;;;4.37;;
77384;SDS011;66443;49.122;8.346;2023-04-29T12:57:47;5.27;;;4.80;;
77384;SDS011;66443;49.122;8.346;2023-04-29T13:00:13;5.57;;;5.17;;
77384;SDS011;66443;49.122;8.346;2023-04-29T13:02:39;5.03;;;4.57;;
77384;SDS011;66443;49.122;8.346;2023-04-29T13:05:04;6.40;;;5.90;;
77384;SDS011;66443;49.122;8.346;2023-04-29T13:07:29;5.40;;;5.00;;
77384;SDS011;66443;49.122;8.346;2023-04-29T13:09:54;6.00;;;5.57;;
77384;SDS011;66443;49.122;8.346;2023-04-29T13:12:20;6.23;;;5.73;;
77384;SDS011;66443;49.122;8.346;2023-04-29T13:14:45;6.83;;;6.33;;
77384;SDS011;66443;49.122;8.346;2023-04-29T13:17:10;5.70;;;5.20;;
77384;SDS011;66443;49.122;8.346;2023-04-29T13:19:36;5.90;;;5.40;;
77384;SDS011;66443;49.122;8.346;2023-04-29T13:22:01;6.10;;;5.60;;
77384;SDS011;66443;49.122;8.346;2023-04-29T13:24:26;5.60;;;5.10;;
77384;SDS011;66443;49.122;8.346;2023-04-29T13:26:51;7.93;;;5.47;;
77384;SDS011;66443;49.122;8.346;2023-04-29T13:29:18;5.03;;;4.53;;
77384;SDS011;66443;49.122;8.346;2023-04-29T13:31:43;5.53;;;5.00;;
77384;SDS011;66443;49.122;8.346;2023-04-29T13:34:08;5.37;;;4.97;;
77384;SDS011;66443;49.122;8.346;2023-04-29T13:36:33;5.80;;;5.00;;
77384;SDS011;66443;49.122;8.346;2023-04-29T13:38:59;5.87;;;5.27;;
77384;SDS011;66443;49.122;8.346;2023-04-29T13:41:24;5.40;;;5.00;;
77384;SDS011;66443;49.122;8.346;2023-04-29T13:43:50;5.07;;;4.60;;
77384;SDS011;66443;49.122;8.346;2023-04-29T13:46:15;5.10;;;4.60;;
77384;SDS011;66443;49.122;8.346;2023-04-29T13:48:40;5.80;;;5.30;;
77384;SDS011;66443;49.122;8.346;2023-04-29T13:51:05;4.70;;;4.23;;
77384;SDS011;66443;49.122;8.346;2023-04-29T13:53:31;5.90;;;5.40;;
77384;SDS011;66443;49.122;8.346;2023-04-29T13:55:56;4.30;;;3.90;;
77384;SDS011;66443;49.122;8.346;2023-04-29T13:58:21;5.43;;;5.03;;
77384;SDS011;66443;49.122;8.346;2023-04-29T14:00:46;4.83;;;4.03;;
77384;SDS011;66443;49.122;8.346;2023-04-29T14:03:12;4.83;;;4.50;;
77384;SDS011;66443;49.122;8.346;2023-04-29T14:05:37;4.43;;;4.03;;
77384;SDS011;66443;49.122;8.346;2023-04-29T14:08:03;4.30;;;3.93;;
77384;SDS011;66443;49.122;8.346;2023-04-29T14:10:28;4.47;;;4.07;;
77384;SDS011;66443;49.122;8.346;2023-04-29T14:12:53;4.10;;;3.80;;
77384;SDS011;66443;49.122;8.346;2023-04-29T14:15:19;4.97;;;4.57;;
77384;SDS011;66443;49.122;8.346;2023-04-29T14:17:44;4.30;;;4.00;;
77384;SDS011;66443;49.122;8.346;2023-04-29T14:20:10;4.00;;;3.70;;
77384;SDS011;66443;49.122;8.346;2023-04-29T14:22:35;4.00;;;3.70;;
77384;SDS011;66443;49.122;8.346;2023-04-29T14:25:00;4.23;;;3.93;;
77384;SDS011;66443;49.122;8.346;2023-04-29T14:27:25;4.40;;;4.10;;
77384;SDS011;66443;49.122;8.346;2023-04-29T14:29:50;5.03;;;4.63;;
77384;SDS011;66443;49.122;8.346;2023-04-29T14:32:16;4.73;;;4.27;;
77384;SDS011;66443;49.122;8.346;2023-04-29T14:34:41;5.00;;;4.60;;
77384;SDS011;66443;49.122;8.346;2023-04-29T14:37:06;4.80;;;4.43;;
77384;SDS011;66443;49.122;8.346;2023-04-29T14:39:32;4.50;;;4.20;;
77384;SDS011;66443;49.122;8.346;2023-04-29T14:41:57;5.07;;;4.67;;
77384;SDS011;66443;49.122;8.346;2023-04-29T14:44:22;5.60;;;5.10;;
77384;SDS011;66443;49.122;8.346;2023-04-29T14:46:47;5.17;;;4.77;;
77384;SDS011;66443;49.122;8.346;2023-04-29T14:49:13;4.73;;;4.33;;
77384;SDS011;66443;49.122;8.346;2023-04-29T14:51:38;4.97;;;4.57;;
77384;SDS011;66443;49.122;8.346;2023-04-29T14:54:03;6.80;;;5.13;;
77384;SDS011;66443;49.122;8.346;2023-04-29T14:56:28;5.77;;;5.27;;